sensor_id;sensor_type;location;lat;lon;timestamp;temperature;humidity
3416;DHT22;1721;51.238;9.562;2023-05-29T00:01:33;12.50;93.50
3416;DHT22;1721;51.238;9.562;2023-05-29T00:03:58;12.30;93.70
3416;DHT22;1721;51.238;9.562;2023-05-29T00:06:24;12.40;93.90
3416;DHT22;1721;51.238;9.562;2023-05-29T00:08:50;12.40;93.80
3416;DHT22;1721;51.238;9.562;2023-05-29T00:11:15;12.40;93.70
3416;DHT22;1721;51.238;9.562;2023-05-29T00:13:41;12.50;93.50
3416;DHT22;1721;51.238;9.562;2023-05-29T00:16:07;12.50;93.40
3416;DHT22;1721;51.238;9.562;2023-05-29T00:18:34;12.40;93.60
3416;DHT22;1721;51.238;9.562;2023-05-29T00:21:00;12.40;93.90
3416;DHT22;1721;51.238;9.562;2023-05-29T00:23:26;12.30;93.70
3416;DHT22;1721;51.238;9.562;2023-05-29T00:25:51;12.40;93.70
3416;DHT22;1721;51.238;9.562;2023-05-29T00:28:17;12.30;93.70
3416;DHT22;1721;51.238;9.562;2023-05-29T00:30:42;12.20;93.80
3416;DHT22;1721;51.238;9.562;2023-05-29T00:33:08;12.20;94.10
3416;DHT22;1721;51.238;9.562;2023-05-29T00:35:33;12.20;94.00
3416;DHT22;1721;51.238;9.562;2023-05-29T00:37:59;12.20;94.00
3416;DHT22;1721;51.238;9.562;2023-05-29T00:40:25;12.20;93.80
3416;DHT22;1721;51.238;9.562;2023-05-29T00:42:51;12.20;93.90
3416;DHT22;1721;51.238;9.562;2023-05-29T00:45:16;12.20;94.00
3416;DHT22;1721;51.238;9.562;2023-05-29T00:47:42;12.10;94.10
3416;DHT22;1721;51.238;9.562;2023-05-29T00:50:11;12.00;94.70
3416;DHT22;1721;51.238;9.562;2023-05-29T00:52:40;12.00;94.70
3416;DHT22;1721;51.238;9.562;2023-05-29T00:55:07;12.00;94.30
3416;DHT22;1721;51.238;9.562;2023-05-29T00:57:34;11.90;94.50
3416;DHT22;1721;51.238;9.562;2023-05-29T01:00:00;12.00;94.50
3416;DHT22;1721;51.238;9.562;2023-05-29T01:02:29;12.00;94.30
3416;DHT22;1721;51.238;9.562;2023-05-29T01:04:56;12.10;94.30
3416;DHT22;1721;51.238;9.562;2023-05-29T01:07:22;12.10;94.10
3416;DHT22;1721;51.238;9.562;2023-05-29T01:09:48;12.00;94.30
3416;DHT22;1721;51.238;9.562;2023-05-29T01:15:14;11.90;94.40
3416;DHT22;1721;51.238;9.562;2023-05-29T01:20:42;12.00;94.40
3416;DHT22;1721;51.238;9.562;2023-05-29T01:28:48;11.90;94.30
3416;DHT22;1721;51.238;9.562;2023-05-29T01:31:17;11.90;94.40
3416;DHT22;1721;51.238;9.562;2023-05-29T01:33:52;11.80;94.40
3416;DHT22;1721;51.238;9.562;2023-05-29T01:36:17;11.60;94.90
3416;DHT22;1721;51.238;9.562;2023-05-29T01:38:43;11.70;95.10
3416;DHT22;1721;51.238;9.562;2023-05-29T01:41:08;11.70;95.00
3416;DHT22;1721;51.238;9.562;2023-05-29T01:43:35;11.70;94.90
3416;DHT22;1721;51.238;9.562;2023-05-29T01:46:01;11.70;94.90
3416;DHT22;1721;51.238;9.562;2023-05-29T01:48:27;11.70;94.80
3416;DHT22;1721;51.238;9.562;2023-05-29T01:50:57;11.70;94.60
3416;DHT22;1721;51.238;9.562;2023-05-29T01:53:23;11.70;94.80
3416;DHT22;1721;51.238;9.562;2023-05-29T01:55:50;11.70;94.90
3416;DHT22;1721;51.238;9.562;2023-05-29T01:58:16;11.70;94.90
3416;DHT22;1721;51.238;9.562;2023-05-29T02:00:43;11.70;95.40
3416;DHT22;1721;51.238;9.562;2023-05-29T02:03:08;11.60;95.30
3416;DHT22;1721;51.238;9.562;2023-05-29T02:05:34;11.50;95.70
3416;DHT22;1721;51.238;9.562;2023-05-29T02:07:59;11.50;95.60
3416;DHT22;1721;51.238;9.562;2023-05-29T02:10:25;11.60;95.60
3416;DHT22;1721;51.238;9.562;2023-05-29T02:12:51;11.60;95.30
3416;DHT22;1721;51.238;9.562;2023-05-29T02:15:17;11.60;95.20
3416;DHT22;1721;51.238;9.562;2023-05-29T02:17:42;11.60;95.40
3416;DHT22;1721;51.238;9.562;2023-05-29T02:20:08;11.60;95.40
3416;DHT22;1721;51.238;9.562;2023-05-29T02:22:35;11.60;95.40
3416;DHT22;1721;51.238;9.562;2023-05-29T02:25:00;11.60;95.40
3416;DHT22;1721;51.238;9.562;2023-05-29T02:27:26;11.60;95.30
3416;DHT22;1721;51.238;9.562;2023-05-29T02:29:51;11.50;95.00
3416;DHT22;1721;51.238;9.562;2023-05-29T02:32:17;11.50;95.40
3416;DHT22;1721;51.238;9.562;2023-05-29T02:34:42;11.40;95.80
3416;DHT22;1721;51.238;9.562;2023-05-29T02:37:08;11.40;95.50
3416;DHT22;1721;51.238;9.562;2023-05-29T02:39:33;11.40;95.60
3416;DHT22;1721;51.238;9.562;2023-05-29T02:41:59;11.40;95.30
3416;DHT22;1721;51.238;9.562;2023-05-29T02:44:24;11.40;95.20
3416;DHT22;1721;51.238;9.562;2023-05-29T02:46:50;11.40;95.30
3416;DHT22;1721;51.238;9.562;2023-05-29T02:49:15;11.30;95.30
3416;DHT22;1721;51.238;9.562;2023-05-29T02:51:41;11.20;95.30
3416;DHT22;1721;51.238;9.562;2023-05-29T02:54:06;11.20;95.50
3416;DHT22;1721;51.238;9.562;2023-05-29T02:56:32;11.20;95.70
3416;DHT22;1721;51.238;9.562;2023-05-29T02:58:58;11.10;95.70
3416;DHT22;1721;51.238;9.562;2023-05-29T03:01:23;11.10;96.00
3416;DHT22;1721;51.238;9.562;2023-05-29T03:03:49;11.10;95.90
3416;DHT22;1721;51.238;9.562;2023-05-29T03:06:14;11.10;95.80
3416;DHT22;1721;51.238;9.562;2023-05-29T03:08:41;11.10;95.60
3416;DHT22;1721;51.238;9.562;2023-05-29T03:11:11;11.20;95.50
3416;DHT22;1721;51.238;9.562;2023-05-29T03:13:37;11.10;95.30
3416;DHT22;1721;51.238;9.562;2023-05-29T03:16:03;11.10;95.20
3416;DHT22;1721;51.238;9.562;2023-05-29T03:18:29;11.10;95.20
3416;DHT22;1721;51.238;9.562;2023-05-29T03:20:55;11.10;95.20
3416;DHT22;1721;51.238;9.562;2023-05-29T03:23:20;11.10;95.30
3416;DHT22;1721;51.238;9.562;2023-05-29T03:25:46;11.10;95.30
3416;DHT22;1721;51.238;9.562;2023-05-29T03:28:11;11.00;95.40
3416;DHT22;1721;51.238;9.562;2023-05-29T03:30:37;11.10;95.70
3416;DHT22;1721;51.238;9.562;2023-05-29T03:33:02;11.00;95.60
3416;DHT22;1721;51.238;9.562;2023-05-29T03:35:32;11.10;95.70
3416;DHT22;1721;51.238;9.562;2023-05-29T03:37:58;11.10;95.70
3416;DHT22;1721;51.238;9.562;2023-05-29T03:40:23;11.10;95.70
3416;DHT22;1721;51.238;9.562;2023-05-29T03:42:49;11.10;95.90
3416;DHT22;1721;51.238;9.562;2023-05-29T03:45:14;11.10;95.90
3416;DHT22;1721;51.238;9.562;2023-05-29T03:47:40;11.20;96.00
3416;DHT22;1721;51.238;9.562;2023-05-29T03:50:06;11.20;96.00
3416;DHT22;1721;51.238;9.562;2023-05-29T03:52:32;11.20;96.00
3416;DHT22;1721;51.238;9.562;2023-05-29T03:54:58;11.30;96.10
3416;DHT22;1721;51.238;9.562;2023-05-29T03:57:23;11.30;96.20
3416;DHT22;1721;51.238;9.562;2023-05-29T03:59:49;11.30;96.50
3416;DHT22;1721;51.238;9.562;2023-05-29T04:02:15;11.40;96.80
3416;DHT22;1721;51.238;9.562;2023-05-29T04:04:40;11.50;97.40
3416;DHT22;1721;51.238;9.562;2023-05-29T04:07:06;11.30;96.70
3416;DHT22;1721;51.238;9.562;2023-05-29T04:09:33;11.30;97.10
3416;DHT22;1721;51.238;9.562;2023-05-29T04:12:00;11.40;97.00
3416;DHT22;1721;51.238;9.562;2023-05-29T04:14:27;11.50;96.90
3416;DHT22;1721;51.238;9.562;2023-05-29T04:16:53;11.50;96.80
3416;DHT22;1721;51.238;9.562;2023-05-29T04:19:19;11.50;96.80
3416;DHT22;1721;51.238;9.562;2023-05-29T04:21:46;11.50;97.20
3416;DHT22;1721;51.238;9.562;2023-05-29T04:24:14;11.60;97.50
3416;DHT22;1721;51.238;9.562;2023-05-29T04:26:39;11.80;97.50
3416;DHT22;1721;51.238;9.562;2023-05-29T04:29:07;11.90;97.60
3416;DHT22;1721;51.238;9.562;2023-05-29T04:31:32;12.00;97.70
3416;DHT22;1721;51.238;9.562;2023-05-29T04:33:58;12.00;96.90
3416;DHT22;1721;51.238;9.562;2023-05-29T04:36:26;12.10;97.50
3416;DHT22;1721;51.238;9.562;2023-05-29T04:38:52;12.20;97.30
3416;DHT22;1721;51.238;9.562;2023-05-29T04:41:18;12.40;97.40
3416;DHT22;1721;51.238;9.562;2023-05-29T04:43:44;12.60;97.40
3416;DHT22;1721;51.238;9.562;2023-05-29T04:46:09;12.90;97.50
3416;DHT22;1721;51.238;9.562;2023-05-29T04:48:38;13.20;97.50
3416;DHT22;1721;51.238;9.562;2023-05-29T04:51:06;13.50;97.30
3416;DHT22;1721;51.238;9.562;2023-05-29T04:53:32;13.90;97.40
3416;DHT22;1721;51.238;9.562;2023-05-29T04:55:58;14.30;97.30
3416;DHT22;1721;51.238;9.562;2023-05-29T04:58:26;14.60;97.10
3416;DHT22;1721;51.238;9.562;2023-05-29T05:00:52;15.00;96.70
3416;DHT22;1721;51.238;9.562;2023-05-29T05:03:17;15.30;96.60
3416;DHT22;1721;51.238;9.562;2023-05-29T05:05:43;15.60;95.50
3416;DHT22;1721;51.238;9.562;2023-05-29T05:08:09;16.00;95.10
3416;DHT22;1721;51.238;9.562;2023-05-29T05:10:37;16.40;94.20
3416;DHT22;1721;51.238;9.562;2023-05-29T05:13:02;16.80;93.60
3416;DHT22;1721;51.238;9.562;2023-05-29T05:15:28;17.20;92.90
3416;DHT22;1721;51.238;9.562;2023-05-29T05:17:54;17.40;92.30
3416;DHT22;1721;51.238;9.562;2023-05-29T05:20:19;17.70;92.00
3416;DHT22;1721;51.238;9.562;2023-05-29T05:22:45;17.90;91.40
3416;DHT22;1721;51.238;9.562;2023-05-29T05:25:11;18.20;91.20
3416;DHT22;1721;51.238;9.562;2023-05-29T05:27:37;18.40;90.50
3416;DHT22;1721;51.238;9.562;2023-05-29T05:30:05;18.60;90.20
3416;DHT22;1721;51.238;9.562;2023-05-29T05:32:32;18.80;89.80
3416;DHT22;1721;51.238;9.562;2023-05-29T05:34:57;18.90;89.00
3416;DHT22;1721;51.238;9.562;2023-05-29T05:37:23;19.00;88.40
3416;DHT22;1721;51.238;9.562;2023-05-29T05:39:50;19.10;88.00
3416;DHT22;1721;51.238;9.562;2023-05-29T05:42:16;19.30;87.60
3416;DHT22;1721;51.238;9.562;2023-05-29T05:44:41;19.50;86.30
3416;DHT22;1721;51.238;9.562;2023-05-29T05:47:07;19.60;86.40
3416;DHT22;1721;51.238;9.562;2023-05-29T05:49:33;19.70;85.60
3416;DHT22;1721;51.238;9.562;2023-05-29T05:51:58;19.70;85.20
3416;DHT22;1721;51.238;9.562;2023-05-29T05:54:24;19.70;84.70
3416;DHT22;1721;51.238;9.562;2023-05-29T05:56:50;19.80;84.50
3416;DHT22;1721;51.238;9.562;2023-05-29T05:59:15;19.90;84.50
3416;DHT22;1721;51.238;9.562;2023-05-29T06:01:41;20.00;83.70
3416;DHT22;1721;51.238;9.562;2023-05-29T06:04:06;20.00;83.10
3416;DHT22;1721;51.238;9.562;2023-05-29T06:06:32;20.20;82.90
3416;DHT22;1721;51.238;9.562;2023-05-29T06:08:58;20.30;82.50
3416;DHT22;1721;51.238;9.562;2023-05-29T06:11:24;20.30;81.70
3416;DHT22;1721;51.238;9.562;2023-05-29T06:13:51;20.10;80.50
3416;DHT22;1721;51.238;9.562;2023-05-29T06:16:18;20.20;81.80
3416;DHT22;1721;51.238;9.562;2023-05-29T06:18:43;20.30;80.90
3416;DHT22;1721;51.238;9.562;2023-05-29T06:21:11;20.40;81.00
3416;DHT22;1721;51.238;9.562;2023-05-29T06:23:37;20.40;80.50
3416;DHT22;1721;51.238;9.562;2023-05-29T06:26:02;20.50;80.60
3416;DHT22;1721;51.238;9.562;2023-05-29T06:28:29;20.50;80.00
3416;DHT22;1721;51.238;9.562;2023-05-29T06:30:54;20.60;79.80
3416;DHT22;1721;51.238;9.562;2023-05-29T06:33:20;20.60;79.90
3416;DHT22;1721;51.238;9.562;2023-05-29T06:35:46;20.60;80.10
3416;DHT22;1721;51.238;9.562;2023-05-29T06:38:13;20.60;79.80
3416;DHT22;1721;51.238;9.562;2023-05-29T06:40:38;20.40;80.90
3416;DHT22;1721;51.238;9.562;2023-05-29T06:43:04;20.10;79.90
3416;DHT22;1721;51.238;9.562;2023-05-29T06:45:30;20.10;79.70
3416;DHT22;1721;51.238;9.562;2023-05-29T06:47:55;20.30;79.90
3416;DHT22;1721;51.238;9.562;2023-05-29T06:50:21;20.60;79.20
3416;DHT22;1721;51.238;9.562;2023-05-29T06:52:47;20.60;78.70
3416;DHT22;1721;51.238;9.562;2023-05-29T06:55:12;20.70;77.90
3416;DHT22;1721;51.238;9.562;2023-05-29T06:57:38;20.60;78.60
3416;DHT22;1721;51.238;9.562;2023-05-29T07:00:05;20.60;78.60
3416;DHT22;1721;51.238;9.562;2023-05-29T07:02:31;20.70;78.20
3416;DHT22;1721;51.238;9.562;2023-05-29T07:04:57;20.80;79.00
3416;DHT22;1721;51.238;9.562;2023-05-29T07:07:23;21.10;78.00
3416;DHT22;1721;51.238;9.562;2023-05-29T07:09:48;21.00;77.60
3416;DHT22;1721;51.238;9.562;2023-05-29T07:12:14;21.00;77.50
3416;DHT22;1721;51.238;9.562;2023-05-29T07:14:39;20.80;79.70
3416;DHT22;1721;51.238;9.562;2023-05-29T07:17:05;20.70;80.40
3416;DHT22;1721;51.238;9.562;2023-05-29T07:19:31;20.80;79.60
3416;DHT22;1721;51.238;9.562;2023-05-29T07:21:59;21.00;79.40
3416;DHT22;1721;51.238;9.562;2023-05-29T07:24:25;21.00;76.90
3416;DHT22;1721;51.238;9.562;2023-05-29T07:26:50;20.80;76.90
3416;DHT22;1721;51.238;9.562;2023-05-29T07:29:16;20.60;77.40
3416;DHT22;1721;51.238;9.562;2023-05-29T07:31:43;20.50;78.40
3416;DHT22;1721;51.238;9.562;2023-05-29T07:34:09;20.40;79.40
3416;DHT22;1721;51.238;9.562;2023-05-29T07:36:35;20.30;78.50
3416;DHT22;1721;51.238;9.562;2023-05-29T07:39:01;20.20;79.10
3416;DHT22;1721;51.238;9.562;2023-05-29T07:41:27;20.00;80.00
3416;DHT22;1721;51.238;9.562;2023-05-29T07:43:53;19.90;79.90
3416;DHT22;1721;51.238;9.562;2023-05-29T07:46:20;19.80;80.60
3416;DHT22;1721;51.238;9.562;2023-05-29T07:48:46;19.80;80.10
3416;DHT22;1721;51.238;9.562;2023-05-29T07:51:12;19.80;81.40
3416;DHT22;1721;51.238;9.562;2023-05-29T07:53:38;19.60;81.10
3416;DHT22;1721;51.238;9.562;2023-05-29T07:56:03;19.70;82.30
3416;DHT22;1721;51.238;9.562;2023-05-29T07:58:29;19.70;81.20
3416;DHT22;1721;51.238;9.562;2023-05-29T08:00:54;19.60;81.50
3416;DHT22;1721;51.238;9.562;2023-05-29T08:03:20;19.80;81.50
3416;DHT22;1721;51.238;9.562;2023-05-29T08:05:46;20.00;81.70
3416;DHT22;1721;51.238;9.562;2023-05-29T08:08:11;20.00;83.50
3416;DHT22;1721;51.238;9.562;2023-05-29T08:10:38;20.00;80.90
3416;DHT22;1721;51.238;9.562;2023-05-29T08:13:04;20.00;82.00
3416;DHT22;1721;51.238;9.562;2023-05-29T08:15:29;20.10;81.70
3416;DHT22;1721;51.238;9.562;2023-05-29T08:17:57;20.20;81.60
3416;DHT22;1721;51.238;9.562;2023-05-29T08:20:22;20.30;81.80
3416;DHT22;1721;51.238;9.562;2023-05-29T08:22:48;20.40;81.00
3416;DHT22;1721;51.238;9.562;2023-05-29T08:25:13;20.50;83.70
3416;DHT22;1721;51.238;9.562;2023-05-29T08:27:39;20.70;83.00
3416;DHT22;1721;51.238;9.562;2023-05-29T08:30:05;20.90;81.60
3416;DHT22;1721;51.238;9.562;2023-05-29T08:32:31;20.80;80.90
3416;DHT22;1721;51.238;9.562;2023-05-29T08:34:56;20.80;83.20
3416;DHT22;1721;51.238;9.562;2023-05-29T08:37:22;20.80;79.80
3416;DHT22;1721;51.238;9.562;2023-05-29T08:39:49;20.60;79.80
3416;DHT22;1721;51.238;9.562;2023-05-29T08:42:21;20.60;80.90
3416;DHT22;1721;51.238;9.562;2023-05-29T08:44:48;20.70;79.40
3416;DHT22;1721;51.238;9.562;2023-05-29T08:47:16;20.70;79.00
3416;DHT22;1721;51.238;9.562;2023-05-29T08:49:53;20.60;80.90
3416;DHT22;1721;51.238;9.562;2023-05-29T08:52:22;20.60;80.80
3416;DHT22;1721;51.238;9.562;2023-05-29T08:54:48;20.60;82.60
3416;DHT22;1721;51.238;9.562;2023-05-29T08:57:14;20.60;80.70
3416;DHT22;1721;51.238;9.562;2023-05-29T08:59:43;20.60;82.20
3416;DHT22;1721;51.238;9.562;2023-05-29T09:02:10;20.60;80.40
3416;DHT22;1721;51.238;9.562;2023-05-29T09:04:37;20.60;80.30
3416;DHT22;1721;51.238;9.562;2023-05-29T09:07:02;20.40;80.40
3416;DHT22;1721;51.238;9.562;2023-05-29T09:09:29;20.30;83.50
3416;DHT22;1721;51.238;9.562;2023-05-29T09:11:57;20.30;83.50
3416;DHT22;1721;51.238;9.562;2023-05-29T09:14:37;20.30;80.80
3416;DHT22;1721;51.238;9.562;2023-05-29T09:17:04;20.20;81.70
3416;DHT22;1721;51.238;9.562;2023-05-29T09:19:31;20.20;82.40
3416;DHT22;1721;51.238;9.562;2023-05-29T09:22:13;20.20;84.90
3416;DHT22;1721;51.238;9.562;2023-05-29T09:24:46;20.10;85.00
3416;DHT22;1721;51.238;9.562;2023-05-29T09:27:12;20.20;85.00
3416;DHT22;1721;51.238;9.562;2023-05-29T09:29:39;20.30;82.60
3416;DHT22;1721;51.238;9.562;2023-05-29T09:32:10;20.40;82.60
3416;DHT22;1721;51.238;9.562;2023-05-29T09:34:37;20.50;81.80
3416;DHT22;1721;51.238;9.562;2023-05-29T09:37:07;20.50;83.20
3416;DHT22;1721;51.238;9.562;2023-05-29T09:42:08;20.60;81.90
3416;DHT22;1721;51.238;9.562;2023-05-29T09:44:34;20.50;83.20
3416;DHT22;1721;51.238;9.562;2023-05-29T09:47:00;20.40;82.20
3416;DHT22;1721;51.238;9.562;2023-05-29T09:49:26;20.40;82.70
3416;DHT22;1721;51.238;9.562;2023-05-29T09:51:56;20.50;81.60
3416;DHT22;1721;51.238;9.562;2023-05-29T09:54:21;20.50;81.80
3416;DHT22;1721;51.238;9.562;2023-05-29T09:56:47;20.50;81.50
3416;DHT22;1721;51.238;9.562;2023-05-29T09:59:14;20.60;83.70
3416;DHT22;1721;51.238;9.562;2023-05-29T10:01:41;20.50;81.90
3416;DHT22;1721;51.238;9.562;2023-05-29T10:04:08;20.60;82.80
3416;DHT22;1721;51.238;9.562;2023-05-29T10:06:36;20.60;82.00
3416;DHT22;1721;51.238;9.562;2023-05-29T10:09:02;20.70;82.30
3416;DHT22;1721;51.238;9.562;2023-05-29T10:11:29;20.70;83.30
3416;DHT22;1721;51.238;9.562;2023-05-29T10:13:57;20.80;82.00
3416;DHT22;1721;51.238;9.562;2023-05-29T10:16:23;21.10;84.30
3416;DHT22;1721;51.238;9.562;2023-05-29T10:18:56;21.30;81.10
3416;DHT22;1721;51.238;9.562;2023-05-29T10:21:22;21.30;80.80
3416;DHT22;1721;51.238;9.562;2023-05-29T10:23:50;21.20;81.90
3416;DHT22;1721;51.238;9.562;2023-05-29T10:29:05;21.30;80.60
3416;DHT22;1721;51.238;9.562;2023-05-29T10:38:19;21.50;79.00
3416;DHT22;1721;51.238;9.562;2023-05-29T10:40:27;21.40;79.90
3416;DHT22;1721;51.238;9.562;2023-05-29T10:42:53;21.20;80.30
3416;DHT22;1721;51.238;9.562;2023-05-29T10:50:48;21.20;81.60
3416;DHT22;1721;51.238;9.562;2023-05-29T10:53:17;21.30;81.30
3416;DHT22;1721;51.238;9.562;2023-05-29T10:55:44;21.30;79.80
3416;DHT22;1721;51.238;9.562;2023-05-29T10:58:19;21.30;80.70
3416;DHT22;1721;51.238;9.562;2023-05-29T11:00:46;21.50;83.20
3416;DHT22;1721;51.238;9.562;2023-05-29T11:03:15;21.60;79.50
3416;DHT22;1721;51.238;9.562;2023-05-29T11:06:00;21.60;79.20
3416;DHT22;1721;51.238;9.562;2023-05-29T11:08:43;21.70;79.00
3416;DHT22;1721;51.238;9.562;2023-05-29T11:11:15;21.90;79.50
3416;DHT22;1721;51.238;9.562;2023-05-29T11:13:55;22.00;77.40
3416;DHT22;1721;51.238;9.562;2023-05-29T11:18:49;22.00;78.50
3416;DHT22;1721;51.238;9.562;2023-05-29T11:21:34;22.00;78.40
3416;DHT22;1721;51.238;9.562;2023-05-29T11:24:04;22.00;78.00
3416;DHT22;1721;51.238;9.562;2023-05-29T11:26:34;22.00;77.30
3416;DHT22;1721;51.238;9.562;2023-05-29T11:29:04;22.00;78.00
3416;DHT22;1721;51.238;9.562;2023-05-29T11:31:33;22.20;76.30
3416;DHT22;1721;51.238;9.562;2023-05-29T11:34:01;22.20;77.00
3416;DHT22;1721;51.238;9.562;2023-05-29T11:36:30;22.30;75.70
3416;DHT22;1721;51.238;9.562;2023-05-29T11:38:56;22.40;76.10
3416;DHT22;1721;51.238;9.562;2023-05-29T11:41:22;22.40;76.50
3416;DHT22;1721;51.238;9.562;2023-05-29T11:44:05;22.60;77.30
3416;DHT22;1721;51.238;9.562;2023-05-29T11:46:34;22.70;76.20
3416;DHT22;1721;51.238;9.562;2023-05-29T11:49:00;22.80;75.10
3416;DHT22;1721;51.238;9.562;2023-05-29T11:51:26;22.90;74.90
3416;DHT22;1721;51.238;9.562;2023-05-29T11:53:52;23.10;72.70
3416;DHT22;1721;51.238;9.562;2023-05-29T11:56:27;23.40;71.50
3416;DHT22;1721;51.238;9.562;2023-05-29T11:58:53;23.50;73.00
3416;DHT22;1721;51.238;9.562;2023-05-29T12:01:26;23.60;72.20
3416;DHT22;1721;51.238;9.562;2023-05-29T12:03:53;23.80;72.80
3416;DHT22;1721;51.238;9.562;2023-05-29T12:06:32;23.80;71.30
3416;DHT22;1721;51.238;9.562;2023-05-29T12:08:58;23.70;73.70
3416;DHT22;1721;51.238;9.562;2023-05-29T12:11:24;23.80;72.40
3416;DHT22;1721;51.238;9.562;2023-05-29T12:13:56;23.70;75.70
3416;DHT22;1721;51.238;9.562;2023-05-29T12:16:22;23.70;72.20
3416;DHT22;1721;51.238;9.562;2023-05-29T12:18:47;23.80;72.00
3416;DHT22;1721;51.238;9.562;2023-05-29T12:21:13;23.80;71.10
3416;DHT22;1721;51.238;9.562;2023-05-29T12:23:39;23.60;71.50
3416;DHT22;1721;51.238;9.562;2023-05-29T12:26:05;23.50;72.20
3416;DHT22;1721;51.238;9.562;2023-05-29T12:28:30;23.40;70.90
3416;DHT22;1721;51.238;9.562;2023-05-29T12:30:59;23.40;70.70
3416;DHT22;1721;51.238;9.562;2023-05-29T12:33:27;23.30;70.40
3416;DHT22;1721;51.238;9.562;2023-05-29T12:35:54;23.20;73.50
3416;DHT22;1721;51.238;9.562;2023-05-29T12:38:20;23.20;72.00
3416;DHT22;1721;51.238;9.562;2023-05-29T12:40:48;23.20;72.00
3416;DHT22;1721;51.238;9.562;2023-05-29T12:43:14;23.30;72.30
3416;DHT22;1721;51.238;9.562;2023-05-29T12:45:40;23.20;73.20
3416;DHT22;1721;51.238;9.562;2023-05-29T12:48:06;23.10;74.10
3416;DHT22;1721;51.238;9.562;2023-05-29T12:50:34;23.20;73.80
3416;DHT22;1721;51.238;9.562;2023-05-29T12:53:01;23.20;73.20
3416;DHT22;1721;51.238;9.562;2023-05-29T12:55:29;23.20;72.80
3416;DHT22;1721;51.238;9.562;2023-05-29T12:57:56;23.20;71.50
3416;DHT22;1721;51.238;9.562;2023-05-29T13:00:22;23.10;71.10
3416;DHT22;1721;51.238;9.562;2023-05-29T13:02:48;23.00;70.60
3416;DHT22;1721;51.238;9.562;2023-05-29T13:05:14;22.90;71.40
3416;DHT22;1721;51.238;9.562;2023-05-29T13:07:42;22.90;74.10
3416;DHT22;1721;51.238;9.562;2023-05-29T13:10:08;23.10;73.00
3416;DHT22;1721;51.238;9.562;2023-05-29T13:12:35;23.20;71.90
3416;DHT22;1721;51.238;9.562;2023-05-29T13:15:01;23.10;71.90
3416;DHT22;1721;51.238;9.562;2023-05-29T13:17:27;23.10;71.00
3416;DHT22;1721;51.238;9.562;2023-05-29T13:19:52;22.80;72.00
3416;DHT22;1721;51.238;9.562;2023-05-29T13:22:18;22.80;72.50
3416;DHT22;1721;51.238;9.562;2023-05-29T13:24:43;22.70;72.80
3416;DHT22;1721;51.238;9.562;2023-05-29T13:27:09;22.90;71.80
3416;DHT22;1721;51.238;9.562;2023-05-29T13:29:34;23.10;72.30
3416;DHT22;1721;51.238;9.562;2023-05-29T13:32:00;23.20;73.30
3416;DHT22;1721;51.238;9.562;2023-05-29T13:34:26;23.10;73.10
3416;DHT22;1721;51.238;9.562;2023-05-29T13:36:57;23.10;73.70
3416;DHT22;1721;51.238;9.562;2023-05-29T13:39:22;22.90;73.90
3416;DHT22;1721;51.238;9.562;2023-05-29T13:41:48;22.80;73.90
3416;DHT22;1721;51.238;9.562;2023-05-29T13:44:14;22.70;72.80
3416;DHT22;1721;51.238;9.562;2023-05-29T13:46:39;22.80;72.50
3416;DHT22;1721;51.238;9.562;2023-05-29T13:49:05;22.80;75.40
3416;DHT22;1721;51.238;9.562;2023-05-29T13:51:32;22.70;72.70
3416;DHT22;1721;51.238;9.562;2023-05-29T13:53:58;22.80;72.10
3416;DHT22;1721;51.238;9.562;2023-05-29T13:56:23;22.80;73.30
3416;DHT22;1721;51.238;9.562;2023-05-29T13:58:52;22.70;74.10
3416;DHT22;1721;51.238;9.562;2023-05-29T14:01:18;22.70;74.80
3416;DHT22;1721;51.238;9.562;2023-05-29T14:03:45;22.70;75.10
3416;DHT22;1721;51.238;9.562;2023-05-29T14:06:11;22.80;74.20
3416;DHT22;1721;51.238;9.562;2023-05-29T14:08:37;22.70;73.70
3416;DHT22;1721;51.238;9.562;2023-05-29T14:11:02;22.70;75.00
3416;DHT22;1721;51.238;9.562;2023-05-29T14:13:28;22.80;73.70
3416;DHT22;1721;51.238;9.562;2023-05-29T14:15:53;22.80;74.60
3416;DHT22;1721;51.238;9.562;2023-05-29T14:18:21;22.70;73.40
3416;DHT22;1721;51.238;9.562;2023-05-29T14:20:47;22.80;72.30
3416;DHT22;1721;51.238;9.562;2023-05-29T14:23:14;22.80;71.20
3416;DHT22;1721;51.238;9.562;2023-05-29T14:25:41;22.80;71.50
3416;DHT22;1721;51.238;9.562;2023-05-29T14:28:07;22.90;72.40
3416;DHT22;1721;51.238;9.562;2023-05-29T14:30:32;23.10;72.20
3416;DHT22;1721;51.238;9.562;2023-05-29T14:32:58;22.90;71.70
3416;DHT22;1721;51.238;9.562;2023-05-29T14:35:25;22.80;71.70
3416;DHT22;1721;51.238;9.562;2023-05-29T14:37:50;22.70;73.70
3416;DHT22;1721;51.238;9.562;2023-05-29T14:40:16;22.80;73.90
3416;DHT22;1721;51.238;9.562;2023-05-29T14:42:41;22.80;73.80
3416;DHT22;1721;51.238;9.562;2023-05-29T14:45:07;22.90;72.20
3416;DHT22;1721;51.238;9.562;2023-05-29T14:47:33;22.90;73.80
3416;DHT22;1721;51.238;9.562;2023-05-29T14:49:58;22.90;71.50
3416;DHT22;1721;51.238;9.562;2023-05-29T14:52:24;23.00;71.80
3416;DHT22;1721;51.238;9.562;2023-05-29T14:54:49;22.90;70.30
3416;DHT22;1721;51.238;9.562;2023-05-29T14:57:15;22.50;71.50
3416;DHT22;1721;51.238;9.562;2023-05-29T14:59:41;22.40;72.00
3416;DHT22;1721;51.238;9.562;2023-05-29T15:02:06;22.40;71.60
3416;DHT22;1721;51.238;9.562;2023-05-29T15:04:32;22.20;71.50
3416;DHT22;1721;51.238;9.562;2023-05-29T15:06:57;22.00;72.50
3416;DHT22;1721;51.238;9.562;2023-05-29T15:09:23;21.90;72.40
3416;DHT22;1721;51.238;9.562;2023-05-29T15:11:49;22.00;72.10
3416;DHT22;1721;51.238;9.562;2023-05-29T15:14:14;22.00;73.00
3416;DHT22;1721;51.238;9.562;2023-05-29T15:16:40;22.10;73.60
3416;DHT22;1721;51.238;9.562;2023-05-29T15:19:05;22.10;72.90
3416;DHT22;1721;51.238;9.562;2023-05-29T15:21:31;21.90;73.00
3416;DHT22;1721;51.238;9.562;2023-05-29T15:23:57;21.90;72.80
3416;DHT22;1721;51.238;9.562;2023-05-29T15:26:22;21.80;72.50
3416;DHT22;1721;51.238;9.562;2023-05-29T15:28:48;21.80;72.30
3416;DHT22;1721;51.238;9.562;2023-05-29T15:31:14;21.70;73.50
3416;DHT22;1721;51.238;9.562;2023-05-29T15:33:39;21.70;72.50
3416;DHT22;1721;51.238;9.562;2023-05-29T15:36:06;21.80;73.00
3416;DHT22;1721;51.238;9.562;2023-05-29T15:38:32;21.80;72.30
3416;DHT22;1721;51.238;9.562;2023-05-29T15:40:58;21.90;72.40
3416;DHT22;1721;51.238;9.562;2023-05-29T15:43:24;22.00;72.40
3416;DHT22;1721;51.238;9.562;2023-05-29T15:45:51;22.00;72.90
3416;DHT22;1721;51.238;9.562;2023-05-29T15:48:16;22.00;72.00
3416;DHT22;1721;51.238;9.562;2023-05-29T15:50:42;22.00;71.20
3416;DHT22;1721;51.238;9.562;2023-05-29T15:53:08;21.90;71.30
3416;DHT22;1721;51.238;9.562;2023-05-29T15:55:33;22.00;70.10
3416;DHT22;1721;51.238;9.562;2023-05-29T15:57:59;21.90;70.10
3416;DHT22;1721;51.238;9.562;2023-05-29T16:00:25;21.80;70.60
3416;DHT22;1721;51.238;9.562;2023-05-29T16:02:50;21.70;71.00
3416;DHT22;1721;51.238;9.562;2023-05-29T16:05:16;21.60;71.50
3416;DHT22;1721;51.238;9.562;2023-05-29T16:07:42;21.50;70.60
3416;DHT22;1721;51.238;9.562;2023-05-29T16:10:13;21.50;69.80
3416;DHT22;1721;51.238;9.562;2023-05-29T16:12:42;21.50;70.10
3416;DHT22;1721;51.238;9.562;2023-05-29T16:15:08;21.40;70.40
3416;DHT22;1721;51.238;9.562;2023-05-29T16:17:34;21.40;71.30
3416;DHT22;1721;51.238;9.562;2023-05-29T16:20:00;21.40;71.00
3416;DHT22;1721;51.238;9.562;2023-05-29T16:22:25;21.40;72.00
3416;DHT22;1721;51.238;9.562;2023-05-29T16:24:51;21.30;72.60
3416;DHT22;1721;51.238;9.562;2023-05-29T16:27:17;21.30;72.30
3416;DHT22;1721;51.238;9.562;2023-05-29T16:29:43;21.20;72.00